createdAt,value
2022-12-18T00:00:01.790Z,26.30
2022-12-18T00:02:29.613Z,23.70
2022-12-18T00:04:57.522Z,24.97
2022-12-18T00:07:25.086Z,25.53
2022-12-18T00:09:52.751Z,24.17
2022-12-18T00:12:20.404Z,25.47
2022-12-18T00:14:49.373Z,24.83
2022-12-18T00:17:17.172Z,25.63
2022-12-18T00:19:44.779Z,28.07
2022-12-18T00:22:12.586Z,24.50
2022-12-18T00:24:40.568Z,25.13
2022-12-18T00:27:08.201Z,26.23
2022-12-18T00:29:36.404Z,29.20
2022-12-18T00:32:05.704Z,28.73
2022-12-18T00:34:33.579Z,25.60
2022-12-18T00:37:01.200Z,28.07
2022-12-18T00:39:28.898Z,27.63
2022-12-18T00:42:13.827Z,26.03
2022-12-18T00:44:41.523Z,25.90
2022-12-18T00:47:10.471Z,26.30
2022-12-18T00:49:38.383Z,26.63
2022-12-18T00:52:06.031Z,28.30
2022-12-18T00:54:34.216Z,27.23
2022-12-18T00:57:01.792Z,25.50
2022-12-18T00:59:29.424Z,24.77
2022-12-18T01:01:57.281Z,27.10
2022-12-18T01:04:26.389Z,25.83
2022-12-18T01:06:53.996Z,26.27
2022-12-18T01:09:21.644Z,26.87
2022-12-18T01:11:49.256Z,26.00
2022-12-18T01:14:17.069Z,26.27
2022-12-18T01:16:44.879Z,25.90
2022-12-18T01:19:12.702Z,26.03
2022-12-18T01:21:42.189Z,24.87
2022-12-18T01:24:09.844Z,25.43
2022-12-18T01:26:37.465Z,24.90
2022-12-18T01:29:05.104Z,24.07
2022-12-18T01:31:34.821Z,26.77
2022-12-18T01:34:04.836Z,23.43
2022-12-18T01:36:33.788Z,24.87
2022-12-18T01:39:03.757Z,22.87
2022-12-18T01:41:52.724Z,24.53
2022-12-18T01:44:57.938Z,25.43
2022-12-18T01:47:28.467Z,25.87
2022-12-18T01:49:57.135Z,28.20
2022-12-18T01:52:27.016Z,25.03
2022-12-18T01:54:56.847Z,23.13
2022-12-18T01:57:25.813Z,24.80
2022-12-18T01:59:55.377Z,24.03
2022-12-18T02:02:23.412Z,24.70
2022-12-18T02:04:51.304Z,25.23
2022-12-18T02:07:24.731Z,24.77
2022-12-18T02:09:59.570Z,24.83
2022-12-18T02:12:32.700Z,24.60
2022-12-18T02:15:03.121Z,22.83
2022-12-18T02:17:33.638Z,23.60
2022-12-18T02:20:08.038Z,24.97
2022-12-18T02:22:41.256Z,24.03
2022-12-18T02:25:18.696Z,24.23
2022-12-18T02:27:49.439Z,21.57
2022-12-18T02:30:20.254Z,22.57
2022-12-18T02:32:52.001Z,23.43
2022-12-18T02:35:24.947Z,22.80
2022-12-18T02:37:56.114Z,24.37
2022-12-18T02:40:25.680Z,22.17
2022-12-18T02:42:54.742Z,22.30
2022-12-18T02:45:22.855Z,24.00
2022-12-18T02:47:51.498Z,22.03
2022-12-18T02:50:21.543Z,22.13
2022-12-18T02:52:58.403Z,22.57
2022-12-18T02:55:33.629Z,20.77
2022-12-18T02:58:06.005Z,21.50
2022-12-18T03:00:36.387Z,19.57
2022-12-18T03:03:09.053Z,19.93
2022-12-18T03:05:39.935Z,18.87
2022-12-18T03:08:09.812Z,23.47
2022-12-18T03:10:40.722Z,19.93
2022-12-18T03:13:12.856Z,22.03
2022-12-18T03:15:44.829Z,19.50
2022-12-18T03:18:15.256Z,19.40
2022-12-18T03:20:44.724Z,19.90
2022-12-18T03:23:15.898Z,20.67
2022-12-18T03:25:45.272Z,19.03
2022-12-18T03:28:16.465Z,20.30
2022-12-18T03:30:46.056Z,20.30
2022-12-18T03:33:20.474Z,21.10
2022-12-18T03:35:48.328Z,19.97
2022-12-18T03:38:16.207Z,21.30
2022-12-18T03:40:50.298Z,21.47
2022-12-18T03:43:22.933Z,19.87
2022-12-18T03:45:54.355Z,20.10
2022-12-18T03:48:27.970Z,20.67
2022-12-18T03:50:58.652Z,19.23
2022-12-18T03:53:34.010Z,19.20
2022-12-18T03:56:02.854Z,19.23
2022-12-18T03:58:33.940Z,17.40
2022-12-18T04:01:05.148Z,19.07
2022-12-18T04:03:33.911Z,18.83
2022-12-18T04:06:02.950Z,19.57
2022-12-18T04:08:31.325Z,18.97
2022-12-18T04:10:58.915Z,18.00
2022-12-18T04:13:27.134Z,17.63
2022-12-18T04:15:56.173Z,17.83
2022-12-18T04:18:23.782Z,18.40
2022-12-18T04:20:51.341Z,18.50
2022-12-18T04:23:19.000Z,17.93
2022-12-18T04:25:47.373Z,18.03
2022-12-18T04:28:14.974Z,18.70
2022-12-18T04:30:42.743Z,19.23
2022-12-18T04:33:12.705Z,18.20
2022-12-18T04:35:40.672Z,19.20
2022-12-18T04:38:09.215Z,18.30
2022-12-18T04:40:36.939Z,19.37
2022-12-18T04:43:04.900Z,18.70
2022-12-18T04:45:32.657Z,19.50
2022-12-18T04:48:00.269Z,19.50
2022-12-18T04:50:29.696Z,19.97
2022-12-18T04:52:57.528Z,20.50
2022-12-18T04:55:25.168Z,18.03
2022-12-18T04:57:52.783Z,19.63
2022-12-18T05:00:20.522Z,18.80
2022-12-18T05:02:48.306Z,20.07
2022-12-18T05:05:16.291Z,19.73
2022-12-18T05:07:45.269Z,19.33
2022-12-18T05:10:13.681Z,22.13
2022-12-18T05:12:59.093Z,20.13
2022-12-18T05:15:30.264Z,18.17
2022-12-18T05:17:58.212Z,20.13
2022-12-18T05:20:26.253Z,19.30
2022-12-18T05:22:55.460Z,19.13
2022-12-18T05:25:24.161Z,19.77
2022-12-18T05:27:51.842Z,21.60
2022-12-18T05:30:19.745Z,19.93
2022-12-18T05:32:47.380Z,21.27
2022-12-18T05:35:14.951Z,20.37
2022-12-18T05:37:43.416Z,19.20
2022-12-18T05:40:13.829Z,20.17
2022-12-18T05:42:41.535Z,19.57
2022-12-18T05:45:09.975Z,21.57
2022-12-18T05:47:37.973Z,20.03
2022-12-18T05:50:06.606Z,20.60
2022-12-18T05:52:34.234Z,20.03
2022-12-18T05:55:01.957Z,21.73
2022-12-18T05:57:30.895Z,18.70
2022-12-18T05:59:58.509Z,19.90
2022-12-18T06:02:26.081Z,18.67
2022-12-18T06:04:53.715Z,18.67
2022-12-18T06:07:21.314Z,18.80
2022-12-18T06:09:48.922Z,18.37
2022-12-18T06:12:16.641Z,19.20
2022-12-18T06:14:45.781Z,19.20
2022-12-18T06:17:13.379Z,19.60
2022-12-18T06:19:40.975Z,20.27
2022-12-18T06:22:08.597Z,19.90
2022-12-18T06:24:36.217Z,20.70
2022-12-18T06:27:03.858Z,19.47
2022-12-18T06:29:31.422Z,21.57
2022-12-18T06:32:00.406Z,22.37
2022-12-18T06:34:28.107Z,23.03
2022-12-18T06:36:55.673Z,25.63
2022-12-18T06:39:23.460Z,39.40
2022-12-18T06:41:51.021Z,33.83
2022-12-18T06:44:18.896Z,33.27
2022-12-18T06:46:46.578Z,25.73
2022-12-18T06:49:16.909Z,30.20
2022-12-18T06:51:44.564Z,24.80
2022-12-18T06:54:12.206Z,27.20
2022-12-18T06:56:39.891Z,25.37
2022-12-18T06:59:07.616Z,33.97
2022-12-18T07:01:35.399Z,35.70
2022-12-18T07:04:03.058Z,21.80
2022-12-18T07:06:32.204Z,21.97
2022-12-18T07:08:59.816Z,22.33
2022-12-18T07:11:27.366Z,22.73
2022-12-18T07:13:55.291Z,20.60
2022-12-18T07:16:25.663Z,21.70
2022-12-18T07:18:53.796Z,23.93
2022-12-18T07:21:21.880Z,23.33
2022-12-18T07:23:50.878Z,20.07
2022-12-18T07:26:20.202Z,22.20
2022-12-18T07:28:48.225Z,21.13
2022-12-18T07:31:17.429Z,23.27
2022-12-18T07:33:45.541Z,21.03
2022-12-18T07:36:13.539Z,22.73
2022-12-18T07:38:41.371Z,20.77
2022-12-18T07:41:11.917Z,26.77
2022-12-18T07:43:41.070Z,23.77
2022-12-18T07:46:10.746Z,21.97
2022-12-18T07:48:41.291Z,18.53
2022-12-18T07:51:09.588Z,18.67
2022-12-18T07:53:38.674Z,20.13
2022-12-18T07:58:58.462Z,20.03
2022-12-18T08:01:26.277Z,20.73
2022-12-18T08:03:54.239Z,20.37
2022-12-18T08:06:22.587Z,19.90
2022-12-18T08:08:53.152Z,18.77
2022-12-18T08:11:20.781Z,19.03
2022-12-18T08:13:49.134Z,18.90
2022-12-18T08:16:20.047Z,18.43
2022-12-18T08:18:48.687Z,19.20
2022-12-18T08:21:19.065Z,19.53
2022-12-18T08:23:51.111Z,20.20
2022-12-18T08:26:19.318Z,20.93
2022-12-18T08:28:47.311Z,23.07
2022-12-18T08:31:15.711Z,20.73
2022-12-18T08:33:45.245Z,20.03
2022-12-18T08:36:13.364Z,19.47
2022-12-18T08:38:41.080Z,18.87
2022-12-18T08:41:11.217Z,21.47
2022-12-18T08:43:56.943Z,20.10
2022-12-18T08:46:26.406Z,21.80
2022-12-18T08:48:56.723Z,19.43
2022-12-18T08:51:24.311Z,18.83
2022-12-18T08:53:51.945Z,21.53
2022-12-18T08:56:20.217Z,21.03
2022-12-18T08:58:48.018Z,20.53
2022-12-18T09:01:15.934Z,20.17
2022-12-18T09:03:44.398Z,21.37
2022-12-18T09:06:16.017Z,21.40
2022-12-18T09:08:44.166Z,18.60
2022-12-18T09:11:16.057Z,19.53
2022-12-18T09:13:44.181Z,20.03
2022-12-18T09:16:11.736Z,23.67
2022-12-18T09:18:39.635Z,20.53
2022-12-18T09:21:13.618Z,21.73
2022-12-18T09:23:41.208Z,21.77
2022-12-18T09:26:09.455Z,22.07
2022-12-18T09:28:37.388Z,21.50
2022-12-18T09:31:09.664Z,21.43
2022-12-18T09:33:37.771Z,21.07
2022-12-18T09:36:08.536Z,21.27
2022-12-18T09:38:38.132Z,21.90
2022-12-18T09:41:08.660Z,22.17
2022-12-18T09:43:39.416Z,22.50
2022-12-18T09:46:09.971Z,22.50
2022-12-18T09:48:39.890Z,22.60
2022-12-18T09:51:14.415Z,24.77
2022-12-18T09:53:46.969Z,21.77
2022-12-18T09:56:18.251Z,21.57
2022-12-18T09:58:50.408Z,22.63
2022-12-18T10:01:21.678Z,21.97
2022-12-18T10:03:51.594Z,21.83
2022-12-18T10:06:24.441Z,22.60
2022-12-18T10:08:58.442Z,20.67
2022-12-18T10:11:40.077Z,21.87
2022-12-18T10:14:14.222Z,21.03
2022-12-18T10:16:52.279Z,21.43
2022-12-18T10:19:34.274Z,20.53
2022-12-18T10:22:21.162Z,20.73
2022-12-18T10:24:55.226Z,19.80
2022-12-18T10:27:25.887Z,21.10
2022-12-18T10:29:54.157Z,20.93
2022-12-18T10:32:26.591Z,20.77
2022-12-18T10:35:00.549Z,22.80
2022-12-18T10:37:30.634Z,21.30
2022-12-18T10:40:16.647Z,20.90
2022-12-18T10:42:47.779Z,20.80
2022-12-18T10:45:17.478Z,21.13
2022-12-18T10:47:47.458Z,21.63
2022-12-18T10:50:26.243Z,20.93
2022-12-18T10:53:01.296Z,21.53
2022-12-18T10:55:37.935Z,20.97
2022-12-18T10:58:24.975Z,20.87
2022-12-18T11:01:08.847Z,21.07
2022-12-18T11:03:38.930Z,21.57
2022-12-18T11:06:09.275Z,21.57
2022-12-18T11:08:38.060Z,21.50
2022-12-18T11:11:18.895Z,22.17
2022-12-18T11:13:58.102Z,22.33
2022-12-18T11:16:26.696Z,22.77
2022-12-18T11:18:54.744Z,21.57
2022-12-18T11:21:22.943Z,22.37
2022-12-18T11:23:52.418Z,20.93
2022-12-18T11:26:22.690Z,20.80
2022-12-18T11:28:53.834Z,21.50
2022-12-18T11:31:26.785Z,21.60
2022-12-18T11:36:51.962Z,21.23
2022-12-18T11:39:22.504Z,20.73
2022-12-18T11:42:11.127Z,20.47
2022-12-18T11:44:48.334Z,19.60
2022-12-18T11:47:23.482Z,21.93
2022-12-18T11:49:51.791Z,20.90
2022-12-18T11:52:23.822Z,22.43
2022-12-18T11:54:54.489Z,22.50
2022-12-18T11:57:35.930Z,21.50
2022-12-18T12:00:06.714Z,21.20
2022-12-18T12:02:49.650Z,22.13
2022-12-18T12:05:30.286Z,23.10
2022-12-18T12:08:03.661Z,27.63
2022-12-18T12:10:39.561Z,23.33
2022-12-18T12:13:26.405Z,24.27
2022-12-18T12:16:04.686Z,22.70
2022-12-18T12:18:44.986Z,21.70
2022-12-18T12:21:16.320Z,21.63
2022-12-18T12:23:51.336Z,22.30
2022-12-18T12:26:22.204Z,23.73
2022-12-18T12:29:02.330Z,23.27
2022-12-18T12:31:40.519Z,24.00
2022-12-18T12:34:16.250Z,22.50
2022-12-18T12:36:56.446Z,24.90
2022-12-18T12:39:27.014Z,21.30
2022-12-18T12:42:12.926Z,24.23
2022-12-18T12:44:45.234Z,24.07
2022-12-18T12:47:17.785Z,25.13
2022-12-18T12:49:50.251Z,24.83
2022-12-18T12:52:30.780Z,25.00
2022-12-18T12:54:58.834Z,23.67
2022-12-18T12:57:33.377Z,23.93
2022-12-18T13:00:06.473Z,24.43
2022-12-18T13:02:38.854Z,22.40
2022-12-18T13:05:14.790Z,23.60
2022-12-18T13:07:44.313Z,23.70
2022-12-18T13:10:34.862Z,23.87
2022-12-18T13:13:03.883Z,22.40
2022-12-18T13:15:39.986Z,24.03
2022-12-18T13:18:14.400Z,21.60
2022-12-18T13:20:46.630Z,25.17
2022-12-18T13:23:28.044Z,25.10
2022-12-18T13:25:56.765Z,24.83
2022-12-18T13:28:26.912Z,24.47
2022-12-18T13:30:58.420Z,24.80
2022-12-18T13:34:23.815Z,24.70
2022-12-18T13:36:36.405Z,26.37
2022-12-18T13:39:30.229Z,27.67
2022-12-18T13:43:04.922Z,26.20
2022-12-18T13:45:40.560Z,24.63
2022-12-18T13:51:06.122Z,26.20
2022-12-18T13:53:43.833Z,26.60
2022-12-18T13:56:19.513Z,26.70
2022-12-18T13:58:50.384Z,25.30
2022-12-18T14:01:27.226Z,24.17
2022-12-18T14:04:13.340Z,25.00
2022-12-18T14:06:42.772Z,23.30
2022-12-18T14:09:20.296Z,25.70
2022-12-18T14:11:50.202Z,24.33
2022-12-18T14:14:22.774Z,26.23
2022-12-18T14:16:52.681Z,25.33
2022-12-18T14:19:25.550Z,25.23
2022-12-18T14:21:53.834Z,25.03
2022-12-18T14:24:23.441Z,25.30
2022-12-18T14:26:53.231Z,25.03
2022-12-18T14:29:24.307Z,25.10
2022-12-18T14:32:16.558Z,24.70
2022-12-18T14:34:49.183Z,24.53
2022-12-18T14:37:18.695Z,24.47
2022-12-18T14:40:00.101Z,25.13
2022-12-18T14:42:29.445Z,24.47
2022-12-18T14:45:41.644Z,25.67
2022-12-18T14:48:13.952Z,27.80
2022-12-18T14:50:44.899Z,30.30
2022-12-18T14:53:23.182Z,26.13
2022-12-18T14:55:51.035Z,25.90
2022-12-18T14:58:20.879Z,26.63
2022-12-18T15:00:49.813Z,25.33
2022-12-18T15:03:20.965Z,25.50
2022-12-18T15:05:50.221Z,25.63
2022-12-18T15:08:31.433Z,24.20
2022-12-18T15:10:59.452Z,25.20
2022-12-18T15:13:27.475Z,25.63
2022-12-18T15:15:56.825Z,24.27
2022-12-18T15:18:32.066Z,26.47
2022-12-18T15:21:02.998Z,25.67
2022-12-18T15:24:26.819Z,26.10
2022-12-18T15:26:55.697Z,25.33
2022-12-18T15:29:26.254Z,25.13
2022-12-18T15:32:04.980Z,26.00
2022-12-18T15:34:35.279Z,27.03
2022-12-18T15:37:04.309Z,26.47
2022-12-18T15:39:31.929Z,27.83
2022-12-18T15:42:22.603Z,29.23
2022-12-18T15:44:50.586Z,25.03
2022-12-18T15:47:18.467Z,27.17
2022-12-18T15:49:46.132Z,27.57
2022-12-18T15:52:27.325Z,26.73
2022-12-18T15:55:12.715Z,25.40
2022-12-18T15:57:40.867Z,25.83
2022-12-18T16:00:14.048Z,28.67
2022-12-18T16:02:41.790Z,26.73
2022-12-18T16:05:12.668Z,25.70
2022-12-18T16:07:41.608Z,25.23
2022-12-18T16:10:09.975Z,24.80
2022-12-18T16:12:38.013Z,26.43
2022-12-18T16:15:06.952Z,25.73
2022-12-18T16:17:35.100Z,26.30
2022-12-18T16:20:02.735Z,27.70
2022-12-18T16:22:31.742Z,25.23
2022-12-18T16:25:00.663Z,26.87
2022-12-18T16:27:29.347Z,27.33
2022-12-18T16:29:57.011Z,23.57
2022-12-18T16:32:25.100Z,25.47
2022-12-18T16:34:53.733Z,26.40
2022-12-18T16:37:21.625Z,26.23
2022-12-18T16:39:49.709Z,25.63
2022-12-18T16:42:21.046Z,25.13
2022-12-18T16:44:51.467Z,26.37
2022-12-18T16:47:19.392Z,26.27
2022-12-18T16:49:47.470Z,25.73
2022-12-18T16:52:15.665Z,25.13
2022-12-18T16:54:44.521Z,26.40
2022-12-18T16:57:15.014Z,24.33
2022-12-18T16:59:44.755Z,24.50
2022-12-18T17:02:15.583Z,26.23
2022-12-18T17:04:44.943Z,24.53
2022-12-18T17:07:12.906Z,24.77
2022-12-18T17:09:40.906Z,25.13
2022-12-18T17:12:08.849Z,26.00
2022-12-18T17:14:37.249Z,26.90
2022-12-18T17:17:20.952Z,24.47
2022-12-18T17:19:49.263Z,25.77
2022-12-18T17:22:16.913Z,25.30
2022-12-18T17:24:44.505Z,27.50
2022-12-18T17:27:12.134Z,29.53
2022-12-18T17:29:45.345Z,30.13
2022-12-18T17:32:17.116Z,30.37
2022-12-18T17:34:54.995Z,27.97
2022-12-18T17:37:23.179Z,27.60
2022-12-18T17:39:50.741Z,27.07
2022-12-18T17:42:18.331Z,27.63
2022-12-18T17:44:46.007Z,26.67
2022-12-18T17:47:13.602Z,27.87
2022-12-18T17:49:42.580Z,28.40
2022-12-18T17:52:10.304Z,27.03
2022-12-18T17:54:39.765Z,27.30
2022-12-18T17:57:07.619Z,27.53
2022-12-18T17:59:35.248Z,27.93
2022-12-18T18:02:03.788Z,29.00
2022-12-18T18:04:32.323Z,27.27
2022-12-18T18:07:03.167Z,25.87
2022-12-18T18:09:31.096Z,27.10
2022-12-18T18:12:16.230Z,25.90
2022-12-18T18:14:43.900Z,25.83
2022-12-18T18:17:12.444Z,27.13
2022-12-18T18:19:40.053Z,26.73
2022-12-18T18:22:10.323Z,26.90
2022-12-18T18:24:38.600Z,27.20
2022-12-18T18:27:06.278Z,25.57
2022-12-18T18:29:33.871Z,26.13
2022-12-18T18:32:03.096Z,26.93
2022-12-18T18:34:32.759Z,24.73
2022-12-18T18:37:00.954Z,26.57
2022-12-18T18:39:30.630Z,26.17
2022-12-18T18:41:59.337Z,25.43
2022-12-18T18:44:27.070Z,25.27
2022-12-18T18:46:55.778Z,26.83
2022-12-18T18:49:24.324Z,27.17
2022-12-18T18:51:52.039Z,28.93
2022-12-18T18:54:19.650Z,26.03
2022-12-18T18:57:19.521Z,27.17
2022-12-18T18:59:37.024Z,26.40
2022-12-18T19:02:05.188Z,24.33
2022-12-18T19:04:33.301Z,25.20
2022-12-18T19:07:01.107Z,29.47
2022-12-18T19:09:29.379Z,27.07
2022-12-18T19:12:15.944Z,25.87
2022-12-18T19:14:43.895Z,24.60
2022-12-18T19:17:11.725Z,27.70
2022-12-18T19:19:40.068Z,27.90
2022-12-18T19:22:09.252Z,29.17
2022-12-18T19:24:36.872Z,27.90
2022-12-18T19:27:05.859Z,26.10
2022-12-18T19:29:37.616Z,28.20
2022-12-18T19:32:05.921Z,27.07
2022-12-18T19:34:33.537Z,27.23
2022-12-18T19:37:02.217Z,27.23
2022-12-18T19:39:29.742Z,27.57
2022-12-18T19:41:57.663Z,25.83
2022-12-18T19:44:26.747Z,26.40
2022-12-18T19:46:54.390Z,27.97
2022-12-18T19:49:21.978Z,26.27
2022-12-18T19:51:50.257Z,27.07
2022-12-18T19:54:18.584Z,27.97
2022-12-18T19:56:46.816Z,25.63
2022-12-18T19:59:16.397Z,25.23
2022-12-18T20:01:45.555Z,26.70
2022-12-18T20:04:13.481Z,25.47
2022-12-18T20:06:48.271Z,24.97
2022-12-18T20:09:16.393Z,25.70
2022-12-18T20:11:44.454Z,25.40
2022-12-18T20:14:12.524Z,28.33
2022-12-18T20:16:40.820Z,26.67
2022-12-18T20:19:11.292Z,26.57
2022-12-18T20:21:39.002Z,24.17
2022-12-18T20:24:08.280Z,30.43
2022-12-18T20:26:35.843Z,29.60
2022-12-18T20:29:03.457Z,31.60
2022-12-18T20:31:31.367Z,29.60
2022-12-18T20:34:01.457Z,28.53
2022-12-18T20:36:34.069Z,28.43
2022-12-18T20:39:04.034Z,27.53
2022-12-18T20:41:38.197Z,27.17
2022-12-18T20:44:09.847Z,25.77
2022-12-18T20:46:50.448Z,26.97
2022-12-18T20:49:18.062Z,24.77
2022-12-18T20:51:46.951Z,25.93
2022-12-18T20:54:14.557Z,25.87
2022-12-18T20:56:42.108Z,26.20
2022-12-18T20:59:11.336Z,24.97
2022-12-18T21:01:41.492Z,24.93
2022-12-18T21:04:15.840Z,26.43
2022-12-18T21:06:50.998Z,23.73
2022-12-18T21:09:20.376Z,26.10
2022-12-18T21:12:05.475Z,25.50
2022-12-18T21:14:33.230Z,26.83
2022-12-18T21:17:02.007Z,25.90
2022-12-18T21:19:29.874Z,25.17
2022-12-18T21:21:59.278Z,25.67
2022-12-18T21:24:28.192Z,27.17
2022-12-18T21:26:56.463Z,26.53
2022-12-18T21:29:25.421Z,23.80
2022-12-18T21:31:55.486Z,25.13
2022-12-18T21:34:25.401Z,24.10
2022-12-18T21:36:53.731Z,26.17
2022-12-18T21:39:22.858Z,25.43
2022-12-18T21:42:08.554Z,26.00
2022-12-18T21:44:41.660Z,24.53
2022-12-18T21:47:20.904Z,26.00
2022-12-18T21:49:50.083Z,27.67
2022-12-18T21:52:17.913Z,26.77
2022-12-18T21:54:46.909Z,25.97
2022-12-18T21:57:14.648Z,26.27
2022-12-18T21:59:44.259Z,25.00
2022-12-18T22:02:13.840Z,26.10
2022-12-18T22:04:41.772Z,26.80
2022-12-18T22:07:09.450Z,24.77
2022-12-18T22:09:38.968Z,26.63
2022-12-18T22:12:08.890Z,25.97
2022-12-18T22:14:36.623Z,27.60
2022-12-18T22:17:04.238Z,26.00
2022-12-18T22:19:35.700Z,25.37
2022-12-18T22:22:07.722Z,25.03
2022-12-18T22:24:35.371Z,26.07
2022-12-18T22:27:03.049Z,26.23
2022-12-18T22:29:49.500Z,25.47
2022-12-18T22:32:31.038Z,26.43
2022-12-18T22:35:05.209Z,26.30
2022-12-18T22:37:33.784Z,25.97
2022-12-18T22:40:03.188Z,25.73
2022-12-18T22:42:31.478Z,26.90
2022-12-18T22:45:00.628Z,26.03
2022-12-18T22:47:30.525Z,27.50
2022-12-18T22:49:58.480Z,25.77
2022-12-18T22:52:26.542Z,25.37
2022-12-18T22:54:54.574Z,24.30
2022-12-18T22:57:22.593Z,25.80
2022-12-18T22:59:50.218Z,25.63
2022-12-18T23:02:19.667Z,25.57
2022-12-18T23:04:47.595Z,26.80
2022-12-18T23:07:15.537Z,26.70
2022-12-18T23:09:43.261Z,24.67
2022-12-18T23:12:16.494Z,25.47
2022-12-18T23:14:44.366Z,25.77
2022-12-18T23:17:12.265Z,26.13
2022-12-18T23:19:47.165Z,26.33
2022-12-18T23:22:16.657Z,27.43
2022-12-18T23:24:44.333Z,24.40
2022-12-18T23:27:12.340Z,26.23
2022-12-18T23:29:40.108Z,26.63
2022-12-18T23:32:07.819Z,26.53
2022-12-18T23:34:35.528Z,24.83
2022-12-18T23:37:04.595Z,26.43
2022-12-18T23:39:32.422Z,27.57
2022-12-18T23:42:00.493Z,25.40
2022-12-18T23:44:28.546Z,26.20
2022-12-18T23:46:56.402Z,25.60
2022-12-18T23:49:24.386Z,26.63
2022-12-18T23:51:55.441Z,24.27
2022-12-18T23:54:33.437Z,26.40
2022-12-18T23:57:02.307Z,26.17
2022-12-18T23:59:30.741Z,26.30
